createdAt,value
2023-05-19T00:00:18.254Z,0.00
2023-05-19T00:01:18.277Z,0.00
2023-05-19T00:02:18.323Z,0.00
2023-05-19T00:03:18.411Z,0.00
2023-05-19T00:04:18.295Z,0.00
2023-05-19T00:05:18.315Z,0.00
2023-05-19T00:06:18.406Z,0.00
2023-05-19T00:07:18.353Z,0.00
2023-05-19T00:08:18.381Z,0.00
2023-05-19T00:09:18.367Z,0.00
2023-05-19T00:10:18.416Z,0.00
2023-05-19T00:11:18.391Z,0.00
2023-05-19T00:12:18.433Z,0.00
2023-05-19T00:13:18.404Z,0.00
2023-05-19T00:14:18.408Z,0.00
2023-05-19T00:15:18.407Z,0.00
2023-05-19T00:16:18.472Z,0.00
2023-05-19T00:17:18.434Z,0.00
2023-05-19T00:18:18.445Z,0.00
2023-05-19T00:19:18.508Z,0.00
2023-05-19T00:20:18.439Z,0.00
2023-05-19T00:21:18.448Z,0.00
2023-05-19T00:22:18.453Z,0.00
2023-05-19T00:23:18.470Z,0.00
2023-05-19T00:24:18.481Z,0.00
2023-05-19T00:25:18.505Z,0.00
2023-05-19T00:26:18.515Z,0.00
2023-05-19T00:27:18.510Z,0.00
2023-05-19T00:28:18.585Z,0.00
2023-05-19T00:29:18.581Z,0.00
2023-05-19T00:30:18.586Z,0.00
2023-05-19T00:31:18.666Z,0.00
2023-05-19T00:32:18.683Z,0.00
2023-05-19T00:33:18.585Z,0.00
2023-05-19T00:34:18.585Z,0.00
2023-05-19T00:35:18.625Z,0.00
2023-05-19T00:36:18.626Z,0.00
2023-05-19T00:37:18.650Z,0.00
2023-05-19T00:38:18.666Z,0.00
2023-05-19T00:39:18.664Z,0.00
2023-05-19T00:40:18.689Z,0.00
2023-05-19T00:41:18.769Z,0.00
2023-05-19T00:42:18.742Z,0.00
2023-05-19T00:43:18.758Z,0.00
2023-05-19T00:44:18.797Z,0.00
2023-05-19T00:45:18.810Z,0.00
2023-05-19T00:46:18.868Z,0.00
2023-05-19T00:47:18.820Z,0.00
2023-05-19T00:48:18.843Z,0.00
2023-05-19T00:49:18.857Z,0.00
2023-05-19T00:50:18.878Z,0.00
2023-05-19T00:51:18.883Z,0.00
2023-05-19T00:52:18.907Z,0.00
2023-05-19T00:53:18.924Z,0.00
2023-05-19T00:54:18.944Z,0.00
2023-05-19T00:55:18.964Z,0.00
2023-05-19T00:56:18.988Z,0.00
2023-05-19T00:57:19.002Z,0.00
2023-05-19T00:58:19.023Z,0.00
2023-05-19T00:59:19.051Z,0.00
2023-05-19T01:00:19.092Z,0.00
2023-05-19T01:01:19.193Z,0.00
2023-05-19T01:02:19.105Z,0.00
2023-05-19T01:03:19.238Z,0.00
2023-05-19T01:04:19.155Z,0.00
2023-05-19T01:05:19.175Z,0.00
2023-05-19T01:06:19.370Z,0.00
2023-05-19T01:07:19.230Z,0.00
2023-05-19T01:08:19.252Z,0.00
2023-05-19T01:09:19.252Z,0.00
2023-05-19T01:10:19.289Z,0.00
2023-05-19T01:11:19.318Z,0.00
2023-05-19T01:12:19.327Z,0.00
2023-05-19T01:13:19.346Z,0.00
2023-05-19T01:14:19.364Z,0.00
2023-05-19T01:15:19.398Z,0.00
2023-05-19T01:16:19.458Z,0.00
2023-05-19T01:17:19.438Z,0.00
2023-05-19T01:18:19.437Z,0.00
2023-05-19T01:19:19.479Z,0.00
2023-05-19T01:20:19.459Z,0.00
2023-05-19T01:21:19.445Z,0.00
2023-05-19T01:22:19.468Z,0.00
2023-05-19T01:23:19.451Z,0.00
2023-05-19T01:24:19.462Z,0.00
2023-05-19T01:25:19.479Z,0.00
2023-05-19T01:26:19.483Z,0.00
2023-05-19T01:27:19.512Z,0.00
2023-05-19T01:28:19.533Z,0.00
2023-05-19T01:29:19.538Z,0.00
2023-05-19T01:30:19.552Z,0.00
2023-05-19T01:31:19.612Z,0.00
2023-05-19T01:32:19.612Z,0.00
2023-05-19T01:33:19.610Z,0.00
2023-05-19T01:34:19.609Z,0.00
2023-05-19T01:35:19.658Z,0.00
2023-05-19T01:36:19.629Z,0.00
2023-05-19T01:37:19.660Z,0.00
2023-05-19T01:38:19.703Z,0.00
2023-05-19T01:39:19.703Z,0.00
2023-05-19T01:40:19.693Z,0.00
2023-05-19T01:41:19.706Z,0.00
2023-05-19T01:42:19.707Z,0.00
2023-05-19T01:43:19.721Z,0.00
2023-05-19T01:44:19.737Z,0.00
2023-05-19T01:45:19.756Z,0.00
2023-05-19T01:46:19.815Z,0.00
2023-05-19T01:47:19.774Z,0.00
2023-05-19T01:48:19.807Z,0.00
2023-05-19T01:49:19.811Z,0.00
2023-05-19T01:50:19.832Z,0.00
2023-05-19T01:51:19.809Z,0.00
2023-05-19T01:52:19.818Z,0.00
2023-05-19T01:53:19.824Z,0.00
2023-05-19T01:54:19.814Z,0.00
2023-05-19T01:55:19.847Z,0.00
2023-05-19T01:56:19.914Z,0.00
2023-05-19T01:57:19.820Z,0.00
2023-05-19T01:58:19.847Z,0.00
2023-05-19T01:59:19.868Z,0.00
2023-05-19T02:00:21.378Z,0.00
2023-05-19T02:01:19.930Z,0.00
2023-05-19T02:02:19.889Z,0.00
2023-05-19T02:03:19.932Z,0.00
2023-05-19T02:04:20.004Z,0.00
2023-05-19T02:05:19.954Z,0.00
2023-05-19T02:06:20.004Z,0.00
2023-05-19T02:07:19.952Z,0.00
2023-05-19T02:08:19.955Z,0.00
2023-05-19T02:09:19.967Z,0.00
2023-05-19T02:10:19.985Z,0.00
2023-05-19T02:11:19.994Z,0.00
2023-05-19T02:12:19.991Z,0.00
2023-05-19T02:13:20.009Z,0.00
2023-05-19T02:14:20.017Z,0.00
2023-05-19T02:15:20.033Z,0.00
2023-05-19T02:16:20.056Z,0.00
2023-05-19T02:17:20.043Z,0.00
2023-05-19T02:18:20.021Z,0.00
2023-05-19T02:19:20.162Z,0.00
2023-05-19T02:20:20.076Z,0.00
2023-05-19T02:21:20.053Z,0.00
2023-05-19T02:22:20.068Z,0.00
2023-05-19T02:23:20.086Z,0.00
2023-05-19T02:24:20.110Z,0.00
2023-05-19T02:25:20.305Z,0.00
2023-05-19T02:26:20.134Z,0.00
2023-05-19T02:27:20.159Z,0.00
2023-05-19T02:28:20.144Z,0.00
2023-05-19T02:29:20.166Z,0.00
2023-05-19T02:30:20.190Z,0.00
2023-05-19T02:31:20.229Z,0.00
2023-05-19T02:32:20.276Z,0.00
2023-05-19T02:33:20.216Z,0.00
2023-05-19T02:34:20.384Z,0.00
2023-05-19T02:35:20.269Z,0.00
2023-05-19T02:36:20.306Z,0.00
2023-05-19T02:37:20.269Z,0.00
2023-05-19T02:38:20.289Z,0.00
2023-05-19T02:39:20.326Z,0.00
2023-05-19T02:40:20.362Z,0.00
2023-05-19T02:41:20.367Z,0.00
2023-05-19T02:42:20.602Z,0.00
2023-05-19T02:43:20.389Z,0.00
2023-05-19T02:44:20.403Z,0.00
2023-05-19T02:45:20.636Z,0.00
2023-05-19T02:46:20.466Z,0.00
2023-05-19T02:47:20.433Z,0.00
2023-05-19T02:48:20.444Z,0.00
2023-05-19T02:49:20.465Z,0.00
2023-05-19T02:50:20.487Z,0.00
2023-05-19T02:51:20.497Z,0.00
2023-05-19T02:52:20.539Z,0.00
2023-05-19T02:53:20.550Z,0.00
2023-05-19T02:54:20.569Z,0.00
2023-05-19T02:55:20.590Z,1.00
2023-05-19T02:56:20.617Z,1.00
2023-05-19T02:57:20.611Z,1.00
2023-05-19T02:58:20.608Z,1.00
2023-05-19T02:59:20.597Z,1.00
2023-05-19T03:00:20.639Z,1.00
2023-05-19T03:01:20.651Z,1.00
2023-05-19T03:02:21.236Z,2.00
2023-05-19T03:03:20.700Z,1.00
2023-05-19T03:04:20.667Z,2.00
2023-05-19T03:05:20.681Z,3.00
2023-05-19T03:06:20.694Z,3.00
2023-05-19T03:07:20.700Z,3.00
2023-05-19T03:08:20.741Z,4.00
2023-05-19T03:09:20.698Z,4.00
2023-05-19T03:10:20.697Z,5.00
2023-05-19T03:11:20.721Z,6.00
2023-05-19T03:12:20.739Z,6.00
2023-05-19T03:13:20.760Z,8.00
2023-05-19T03:14:20.786Z,8.00
2023-05-19T03:15:20.797Z,10.00
2023-05-19T03:16:20.904Z,12.00
2023-05-19T03:21:38.602Z,21.00
2023-05-19T03:22:38.636Z,24.00
2023-05-19T03:23:38.671Z,27.00
2023-05-19T03:24:38.681Z,29.00
2023-05-19T03:25:38.682Z,32.00
2023-05-19T03:26:38.727Z,35.00
2023-05-19T03:27:38.690Z,39.00
2023-05-19T03:28:38.701Z,43.00
2023-05-19T03:29:38.723Z,48.00
2023-05-19T03:30:38.693Z,53.00
2023-05-19T03:31:38.702Z,57.00
2023-05-19T03:32:38.930Z,63.00
2023-05-19T03:33:38.826Z,68.00
2023-05-19T03:34:38.781Z,73.00
2023-05-19T03:35:38.794Z,77.00
2023-05-19T03:36:38.799Z,82.00
2023-05-19T03:37:38.824Z,87.00
2023-05-19T03:38:38.838Z,92.00
2023-05-19T03:39:38.897Z,97.00
2023-05-19T03:40:38.854Z,103.00
2023-05-19T03:41:38.895Z,110.00
2023-05-19T03:42:38.924Z,116.00
2023-05-19T03:43:38.921Z,125.00
2023-05-19T03:44:38.940Z,132.00
2023-05-19T03:45:38.982Z,141.00
2023-05-19T03:46:38.967Z,150.00
2023-05-19T03:47:39.103Z,159.00
2023-05-19T03:48:39.019Z,171.00
2023-05-19T03:49:39.017Z,180.00
2023-05-19T03:50:39.041Z,191.00
2023-05-19T03:51:39.051Z,201.00
2023-05-19T03:52:39.056Z,211.00
2023-05-19T03:53:39.093Z,220.00
2023-05-19T03:54:39.097Z,230.00
2023-05-19T03:55:39.127Z,240.00
2023-05-19T03:56:39.135Z,251.00
2023-05-19T03:57:39.158Z,261.00
2023-05-19T03:58:39.196Z,272.00
2023-05-19T03:59:39.212Z,283.00
2023-05-19T04:00:39.220Z,294.00
2023-05-19T04:01:39.225Z,307.00
2023-05-19T04:02:39.312Z,322.00
2023-05-19T04:03:39.314Z,336.00
2023-05-19T04:04:39.645Z,350.00
2023-05-19T04:05:39.318Z,365.00
2023-05-19T04:06:39.316Z,380.00
2023-05-19T04:07:39.316Z,395.00
2023-05-19T04:08:39.314Z,412.00
2023-05-19T04:09:39.345Z,429.00
2023-05-19T04:10:39.366Z,449.00
2023-05-19T04:11:39.413Z,469.00
2023-05-19T04:12:39.419Z,488.00
2023-05-19T04:13:39.436Z,506.00
2023-05-19T04:14:39.460Z,523.00
2023-05-19T04:15:39.553Z,543.00
2023-05-19T04:16:39.486Z,563.00
2023-05-19T04:17:39.527Z,588.00
2023-05-19T04:18:39.561Z,610.00
2023-05-19T04:19:39.514Z,632.00
2023-05-19T04:20:39.499Z,650.00
2023-05-19T04:21:39.510Z,669.00
2023-05-19T04:22:39.527Z,690.00
2023-05-19T04:23:39.555Z,709.00
2023-05-19T04:24:39.567Z,725.00
2023-05-19T04:25:39.677Z,741.00
2023-05-19T04:26:39.598Z,758.00
2023-05-19T04:27:39.654Z,777.00
2023-05-19T04:28:39.661Z,791.00
2023-05-19T04:29:39.709Z,806.00
2023-05-19T04:30:39.679Z,821.00
2023-05-19T04:31:39.768Z,837.00
2023-05-19T04:32:39.798Z,855.00
2023-05-19T04:33:39.699Z,869.00
2023-05-19T04:34:39.720Z,883.00
2023-05-19T04:35:39.727Z,898.00
2023-05-19T04:36:39.734Z,913.00
2023-05-19T04:37:39.731Z,929.00
2023-05-19T04:38:39.754Z,947.00
2023-05-19T04:39:39.774Z,968.00
2023-05-19T04:40:39.773Z,989.00
2023-05-19T04:41:39.796Z,1012.00
2023-05-19T04:42:39.795Z,1034.00
2023-05-19T04:43:39.847Z,1055.00
2023-05-19T04:44:39.819Z,1080.00
2023-05-19T04:45:39.837Z,1106.00
2023-05-19T04:46:39.895Z,1126.00
2023-05-19T04:47:39.913Z,1146.00
2023-05-19T04:48:39.876Z,1165.00
2023-05-19T04:49:39.898Z,1183.00
2023-05-19T04:50:39.898Z,1205.00
2023-05-19T04:51:39.929Z,1224.00
2023-05-19T04:52:39.943Z,1243.00
2023-05-19T04:53:39.960Z,1261.00
2023-05-19T04:54:39.988Z,1279.00
2023-05-19T04:55:39.978Z,1298.00
2023-05-19T04:56:39.998Z,1317.00
2023-05-19T04:57:40.011Z,1340.00
2023-05-19T04:58:41.827Z,1360.00
2023-05-19T04:59:40.072Z,1379.00
2023-05-19T05:02:06.025Z,1419.00
2023-05-19T05:03:06.061Z,1436.00
2023-05-19T05:04:06.086Z,1457.00
2023-05-19T05:05:06.000Z,1483.00
2023-05-19T05:06:06.026Z,1512.00
2023-05-19T05:07:06.053Z,1539.00
2023-05-19T05:08:06.080Z,1563.00
2023-05-19T05:09:06.096Z,1588.00
2023-05-19T05:10:06.100Z,1604.00
2023-05-19T05:11:06.162Z,1622.00
2023-05-19T05:12:06.120Z,1640.00
2023-05-19T05:13:06.142Z,1673.00
2023-05-19T05:14:06.176Z,1706.00
2023-05-19T05:15:06.207Z,1735.00
2023-05-19T05:16:06.246Z,1769.00
2023-05-19T05:17:06.207Z,1793.00
2023-05-19T05:18:06.262Z,1807.00
2023-05-19T05:19:06.345Z,1816.00
2023-05-19T05:20:06.281Z,1814.00
2023-05-19T05:21:06.317Z,1809.00
2023-05-19T05:22:06.315Z,1814.00
2023-05-19T05:23:06.310Z,1839.00
2023-05-19T05:24:06.316Z,1859.00
2023-05-19T05:25:06.322Z,1887.00
2023-05-19T05:26:06.332Z,1922.00
2023-05-19T05:27:06.341Z,1959.00
2023-05-19T05:28:06.339Z,1994.00
2023-05-19T05:29:06.374Z,2026.00
2023-05-19T05:30:06.376Z,2059.00
2023-05-19T05:31:06.434Z,2089.00
2023-05-19T05:32:06.416Z,2125.00
2023-05-19T05:33:06.610Z,2141.00
2023-05-19T05:34:06.405Z,2151.00
2023-05-19T05:35:06.440Z,2178.00
2023-05-19T05:36:06.422Z,2211.00
2023-05-19T05:37:06.444Z,2238.00
2023-05-19T05:38:06.473Z,2246.00
2023-05-19T05:39:06.491Z,2258.00
2023-05-19T05:40:06.551Z,2277.00
2023-05-19T05:41:06.536Z,2284.00
2023-05-19T05:42:06.557Z,2303.00
2023-05-19T05:43:06.560Z,2305.00
2023-05-19T05:44:06.574Z,2305.00
2023-05-19T05:45:06.599Z,2304.00
2023-05-19T05:46:06.631Z,2308.00
2023-05-19T05:47:06.661Z,2320.00
2023-05-19T05:48:06.656Z,2348.00
2023-05-19T05:49:06.679Z,2358.00
2023-05-19T05:50:06.656Z,2391.00
2023-05-19T05:51:06.631Z,2417.00
2023-05-19T05:52:07.065Z,2436.00
2023-05-19T05:53:06.645Z,2437.00
2023-05-19T05:54:06.677Z,2432.00
2023-05-19T05:55:06.683Z,2410.00
2023-05-19T05:56:06.704Z,2393.00
2023-05-19T05:57:06.737Z,2381.00
2023-05-19T05:58:06.745Z,2367.00
2023-05-19T05:59:06.767Z,2355.00
2023-05-19T06:00:06.797Z,2350.00
2023-05-19T06:01:06.780Z,2346.00
2023-05-19T06:02:06.804Z,2347.00
2023-05-19T06:03:06.848Z,2358.00
2023-05-19T06:04:06.788Z,2371.00
2023-05-19T06:05:06.866Z,2388.00
2023-05-19T06:06:06.860Z,2410.00
2023-05-19T06:07:06.845Z,2440.00
2023-05-19T06:08:06.865Z,2472.00
2023-05-19T06:09:06.834Z,2512.00
2023-05-19T06:10:06.871Z,2544.00
2023-05-19T06:11:06.895Z,2580.00
2023-05-19T06:12:06.915Z,2615.00
2023-05-19T06:13:06.992Z,2633.00
2023-05-19T06:14:06.962Z,2647.00
2023-05-19T06:15:06.992Z,2651.00
2023-05-19T06:16:07.066Z,2646.00
2023-05-19T06:17:06.998Z,2642.00
2023-05-19T06:18:07.111Z,2630.00
2023-05-19T06:19:07.106Z,2617.00
2023-05-19T06:20:07.003Z,2603.00
2023-05-19T06:21:07.017Z,2585.00
2023-05-19T06:22:07.040Z,2587.00
2023-05-19T06:23:07.056Z,2609.00
2023-05-19T06:24:07.066Z,2646.00
2023-05-19T06:25:07.071Z,2681.00
2023-05-19T06:26:07.124Z,2730.00
2023-05-19T06:27:07.094Z,2782.00
2023-05-19T06:28:07.099Z,2800.00
2023-05-19T06:29:07.126Z,2816.00
2023-05-19T06:30:07.140Z,2819.00
2023-05-19T06:31:07.237Z,2821.00
2023-05-19T06:32:07.195Z,2833.00
2023-05-19T06:33:07.269Z,2826.00
2023-05-19T06:34:07.231Z,2827.00
2023-05-19T06:35:07.280Z,2818.00
2023-05-19T06:36:07.250Z,2763.00
2023-05-19T06:37:07.265Z,2730.00
2023-05-19T06:38:07.265Z,2681.00
2023-05-19T06:39:07.275Z,2644.00
2023-05-19T06:40:07.300Z,2618.00
2023-05-19T06:41:07.302Z,2590.00
2023-05-19T06:42:07.292Z,2554.00
2023-05-19T06:43:07.311Z,2529.00
2023-05-19T06:44:07.324Z,2507.00
2023-05-19T06:45:07.364Z,2486.00
2023-05-19T06:46:07.358Z,2463.00
2023-05-19T06:47:07.443Z,2445.00
2023-05-19T06:48:07.422Z,2411.00
2023-05-19T06:49:07.339Z,2377.00
2023-05-19T06:50:07.352Z,2324.00
2023-05-19T06:51:07.517Z,2248.00
2023-05-19T06:52:07.385Z,2187.00
2023-05-19T06:53:07.391Z,2132.00
2023-05-19T06:54:07.404Z,2099.00
2023-05-19T06:55:07.406Z,2090.00
2023-05-19T06:56:07.590Z,2088.00
2023-05-19T06:57:07.466Z,2093.00
2023-05-19T06:58:07.948Z,2063.00
2023-05-19T06:59:07.505Z,2039.00
2023-05-19T07:00:07.536Z,2036.00
2023-05-19T07:01:07.519Z,2043.00
2023-05-19T07:02:07.663Z,2046.00
2023-05-19T07:03:07.637Z,2058.00
2023-05-19T07:04:07.740Z,2079.00
2023-05-19T07:05:07.571Z,2119.00
2023-05-19T07:06:08.504Z,2142.00
2023-05-19T07:07:07.701Z,2173.00
2023-05-19T07:08:07.624Z,2234.00
2023-05-19T07:09:07.628Z,2294.00
2023-05-19T07:10:07.668Z,2354.00
2023-05-19T07:11:07.672Z,2383.00
2023-05-19T07:12:07.670Z,2434.00
2023-05-19T07:13:07.662Z,2443.00
2023-05-19T07:14:07.631Z,2438.00
2023-05-19T07:15:07.670Z,2424.00
2023-05-19T07:16:07.865Z,2407.00
2023-05-19T07:17:07.672Z,2375.00
2023-05-19T07:18:07.744Z,2375.00
2023-05-19T07:19:07.699Z,2399.00
2023-05-19T07:20:07.693Z,2457.00
2023-05-19T07:21:07.738Z,2507.00
2023-05-19T07:22:07.711Z,2634.00
2023-05-19T07:23:07.742Z,2740.00
2023-05-19T07:24:07.746Z,2799.00
2023-05-19T07:25:07.765Z,2930.00
2023-05-19T07:26:07.800Z,3099.00
2023-05-19T07:27:07.786Z,3271.00
2023-05-19T07:28:07.814Z,3375.00
2023-05-19T07:29:07.810Z,3364.00
2023-05-19T07:30:07.841Z,3413.00
2023-05-19T07:31:07.884Z,3426.00
2023-05-19T07:32:07.884Z,3416.00
2023-05-19T07:33:07.915Z,3427.00
2023-05-19T07:34:07.867Z,3480.00
2023-05-19T07:35:07.891Z,3571.00
2023-05-19T07:36:07.897Z,3621.00
2023-05-19T07:37:07.861Z,3626.00
2023-05-19T07:38:07.871Z,3629.00
2023-05-19T07:39:08.006Z,3605.00
2023-05-19T07:40:07.907Z,3594.00
2023-05-19T07:41:07.896Z,3652.00
2023-05-19T07:42:07.869Z,3790.00
2023-05-19T07:43:07.896Z,3940.00
2023-05-19T07:44:08.068Z,3916.00
2023-05-19T07:45:07.914Z,3827.00
2023-05-19T07:46:07.963Z,3679.00
2023-05-19T07:47:07.970Z,3506.00
2023-05-19T07:48:08.050Z,3417.00
2023-05-19T07:49:07.976Z,3414.00
2023-05-19T07:50:07.945Z,3473.00
2023-05-19T07:51:07.942Z,3664.00
2023-05-19T07:52:07.952Z,3823.00
2023-05-19T07:53:07.994Z,3932.00
2023-05-19T07:54:08.008Z,3961.00
2023-05-19T07:55:08.058Z,3862.00
2023-05-19T07:56:08.030Z,3795.00
2023-05-19T07:57:08.066Z,3730.00
2023-05-19T07:58:08.084Z,3767.00
2023-05-19T07:59:08.127Z,3826.00
2023-05-19T08:00:08.096Z,3887.00
2023-05-19T08:01:08.113Z,3991.00
2023-05-19T08:02:08.193Z,4083.00
2023-05-19T08:03:08.284Z,4122.00
2023-05-19T08:04:10.281Z,4116.00
2023-05-19T08:05:08.191Z,4184.00
2023-05-19T08:06:08.205Z,4340.00
2023-05-19T08:07:08.229Z,4578.00
2023-05-19T08:08:08.257Z,4751.00
2023-05-19T08:09:08.289Z,4928.00
2023-05-19T08:10:08.312Z,5089.00
2023-05-19T08:11:08.350Z,5197.00
2023-05-19T08:12:08.333Z,5260.00
2023-05-19T08:13:08.363Z,5256.00
2023-05-19T08:14:08.382Z,5349.00
2023-05-19T08:15:08.398Z,5471.00
2023-05-19T08:16:08.540Z,5288.00
2023-05-19T08:17:08.428Z,4955.00
2023-05-19T08:18:08.525Z,4458.00
2023-05-19T08:19:08.541Z,4077.00
2023-05-19T08:20:08.642Z,3871.00
2023-05-19T08:21:08.452Z,3664.00
2023-05-19T08:22:08.471Z,3401.00
2023-05-19T08:23:08.495Z,3167.00
2023-05-19T08:24:08.531Z,2851.00
2023-05-19T08:25:08.527Z,2623.00
2023-05-19T08:26:08.536Z,2651.00
2023-05-19T08:27:08.600Z,2800.00
2023-05-19T08:28:08.565Z,2938.00
2023-05-19T08:29:08.611Z,3111.00
2023-05-19T08:30:08.637Z,3243.00
2023-05-19T08:31:08.645Z,3361.00
2023-05-19T08:32:09.793Z,3220.00
2023-05-19T08:33:08.680Z,3260.00
2023-05-19T08:34:08.644Z,3546.00
2023-05-19T08:35:08.651Z,3732.00
2023-05-19T08:36:08.680Z,4038.00
2023-05-19T08:37:08.698Z,4403.00
2023-05-19T08:38:08.722Z,4415.00
2023-05-19T08:39:08.693Z,4161.00
2023-05-19T08:40:08.752Z,3591.00
2023-05-19T08:41:08.732Z,3088.00
2023-05-19T08:42:08.794Z,2884.00
2023-05-19T08:43:08.798Z,2797.00
2023-05-19T08:44:08.757Z,2881.00
2023-05-19T08:45:08.779Z,3005.00
2023-05-19T08:46:08.864Z,3111.00
2023-05-19T08:47:08.880Z,3320.00
2023-05-19T08:48:08.893Z,3564.00
2023-05-19T08:49:08.821Z,3938.00
2023-05-19T08:50:08.861Z,4278.00
2023-05-19T08:51:08.848Z,4710.00
2023-05-19T08:52:08.857Z,5204.00
2023-05-19T08:53:18.086Z,5400.00
2023-05-19T08:54:08.873Z,5379.00
2023-05-19T08:55:08.890Z,5343.00
2023-05-19T08:56:08.905Z,5348.00
2023-05-19T08:57:08.936Z,5287.00
2023-05-19T08:58:08.963Z,5096.00
2023-05-19T08:59:09.109Z,5265.00
2023-05-19T09:00:08.982Z,5402.00
2023-05-19T09:01:09.031Z,5618.00
2023-05-19T09:02:09.019Z,5706.00
2023-05-19T09:04:09.172Z,5245.00
2023-05-19T09:05:09.198Z,5201.00
2023-05-19T09:06:09.174Z,5311.00
2023-05-19T09:07:09.080Z,5615.00
2023-05-19T09:08:09.107Z,6024.00
2023-05-19T09:09:09.131Z,6158.00
2023-05-19T09:10:09.121Z,6284.00
2023-05-19T09:11:09.124Z,6472.00
2023-05-19T09:12:09.126Z,6490.00
2023-05-19T09:13:09.155Z,6401.00
2023-05-19T09:14:09.183Z,5992.00
2023-05-19T09:15:09.217Z,5718.00
2023-05-19T09:16:09.208Z,5671.00
2023-05-19T09:17:09.298Z,5738.00
2023-05-19T09:18:09.214Z,5726.00
2023-05-19T09:19:09.224Z,5881.00
2023-05-19T09:20:09.227Z,5719.00
2023-05-19T09:21:09.245Z,5320.00
2023-05-19T09:22:09.319Z,4862.00
2023-05-19T09:23:09.281Z,4718.00
2023-05-19T09:24:09.295Z,4748.00
2023-05-19T09:25:09.304Z,4793.00
2023-05-19T09:26:09.321Z,4678.00
2023-05-19T09:27:09.501Z,4603.00
2023-05-19T09:28:09.340Z,4657.00
2023-05-19T09:29:09.353Z,4545.00
2023-05-19T09:30:09.370Z,4472.00
2023-05-19T09:31:09.570Z,4431.00
2023-05-19T09:32:09.466Z,4279.00
2023-05-19T09:33:09.495Z,4239.00
2023-05-19T09:34:09.458Z,4346.00
2023-05-19T09:35:09.484Z,4577.00
2023-05-19T09:36:09.494Z,4665.00
2023-05-19T09:37:09.532Z,4539.00
2023-05-19T09:38:09.549Z,4262.00
2023-05-19T09:39:09.553Z,3918.00
2023-05-19T09:40:11.035Z,3817.00
2023-05-19T09:41:09.676Z,3730.00
2023-05-19T09:42:09.625Z,3633.00
2023-05-19T09:43:09.618Z,3550.00
2023-05-19T09:44:09.608Z,3517.00
2023-05-19T09:45:09.613Z,3546.00
2023-05-19T09:46:11.247Z,3675.00
2023-05-19T09:47:09.674Z,3822.00
2023-05-19T09:48:09.665Z,3997.00
2023-05-19T09:49:09.681Z,4165.00
2023-05-19T09:50:09.673Z,4265.00
2023-05-19T09:51:09.681Z,4281.00
2023-05-19T09:52:11.103Z,4264.00
2023-05-19T09:53:09.710Z,4204.00
2023-05-19T09:54:09.722Z,4113.00
2023-05-19T09:55:09.794Z,4128.00
2023-05-19T09:56:09.756Z,4325.00
2023-05-19T09:57:09.795Z,4759.00
2023-05-19T09:58:12.090Z,5268.00
2023-05-19T09:59:09.857Z,5728.00
2023-05-19T10:00:09.835Z,6074.00
2023-05-19T10:01:09.875Z,6382.00
2023-05-19T10:02:09.846Z,6604.00
2023-05-19T10:03:09.900Z,6673.00
2023-05-19T10:04:09.859Z,6581.00
2023-05-19T10:05:09.891Z,6390.00
2023-05-19T10:06:09.885Z,6217.00
2023-05-19T10:07:09.897Z,6069.00
2023-05-19T10:08:09.935Z,5853.00
2023-05-19T10:09:09.929Z,5836.00
2023-05-19T10:10:09.931Z,5968.00
2023-05-19T10:11:09.947Z,6134.00
2023-05-19T10:12:09.975Z,6367.00
2023-05-19T10:13:09.963Z,6572.00
2023-05-19T10:14:09.985Z,6724.00
2023-05-19T10:15:09.967Z,6836.00
2023-05-19T10:16:10.046Z,6950.00
2023-05-19T10:17:09.979Z,7064.00
2023-05-19T10:18:10.060Z,7124.00
2023-05-19T10:19:10.085Z,7112.00
2023-05-19T10:20:10.026Z,7042.00
2023-05-19T10:21:10.061Z,6938.00
2023-05-19T10:22:10.023Z,6830.00
2023-05-19T10:23:10.060Z,6754.00
2023-05-19T10:24:11.562Z,6732.00
2023-05-19T10:25:10.059Z,6746.00
2023-05-19T10:26:10.080Z,6818.00
2023-05-19T10:27:10.091Z,6933.00
2023-05-19T10:28:10.118Z,7033.00
2023-05-19T10:29:10.123Z,7119.00
2023-05-19T10:30:12.101Z,7094.00
2023-05-19T10:31:10.150Z,7133.00
2023-05-19T10:32:10.209Z,7199.00
2023-05-19T10:33:10.212Z,7268.00
2023-05-19T10:34:10.190Z,7213.00
2023-05-19T10:35:10.265Z,7178.00
2023-05-19T10:36:10.240Z,7112.00
2023-05-19T10:37:10.277Z,6970.00
2023-05-19T10:38:10.256Z,6873.00
2023-05-19T10:39:10.310Z,6823.00
2023-05-19T10:40:10.301Z,6843.00
2023-05-19T10:41:10.306Z,6929.00
2023-05-19T10:42:10.285Z,6867.00
2023-05-19T10:43:10.296Z,6801.00
2023-05-19T10:44:10.321Z,6658.00
2023-05-19T10:45:10.281Z,6189.00
2023-05-19T10:46:10.275Z,5938.00
2023-05-19T10:47:10.381Z,5921.00
2023-05-19T10:48:10.311Z,5923.00
2023-05-19T10:49:10.321Z,5998.00
2023-05-19T10:50:10.313Z,6249.00
2023-05-19T10:51:10.380Z,6647.00
2023-05-19T10:52:10.361Z,7139.00
2023-05-19T10:53:10.410Z,7626.00
2023-05-19T10:54:12.189Z,7815.00
2023-05-19T10:55:10.433Z,7698.00
2023-05-19T10:56:10.432Z,7854.00
2023-05-19T10:57:10.407Z,7829.00
2023-05-19T10:58:10.445Z,7882.00
2023-05-19T10:59:10.457Z,7699.00
2023-05-19T11:00:10.513Z,7412.00
2023-05-19T11:01:10.535Z,6919.00
2023-05-19T11:02:10.572Z,6281.00
2023-05-19T11:03:10.576Z,5802.00
2023-05-19T11:04:10.580Z,5634.00
2023-05-19T11:05:10.637Z,5756.00
2023-05-19T11:06:10.558Z,6300.00
2023-05-19T11:07:10.628Z,6811.00
2023-05-19T11:08:10.606Z,6865.00
2023-05-19T11:09:10.704Z,6758.00
2023-05-19T11:10:10.631Z,6746.00
2023-05-19T11:11:10.634Z,6639.00
2023-05-19T11:12:10.657Z,6457.00
2023-05-19T11:13:10.649Z,6205.00
2023-05-19T11:14:10.638Z,5937.00
2023-05-19T11:15:10.653Z,5465.00
2023-05-19T11:16:10.733Z,5353.00
2023-05-19T11:17:10.685Z,5367.00
2023-05-19T11:18:10.767Z,5312.00
2023-05-19T11:19:10.772Z,5462.00
2023-05-19T11:20:10.729Z,5850.00
2023-05-19T11:21:10.768Z,6278.00
2023-05-19T11:22:10.780Z,6560.00
2023-05-19T11:23:10.890Z,6817.00
2023-05-19T11:24:10.785Z,6907.00
2023-05-19T11:25:10.841Z,6900.00
2023-05-19T11:26:10.806Z,7158.00
2023-05-19T11:27:10.827Z,7510.00
2023-05-19T11:28:10.821Z,7712.00
2023-05-19T11:29:10.831Z,7657.00
2023-05-19T11:30:10.826Z,7603.00
2023-05-19T11:31:10.860Z,7407.00
2023-05-19T11:32:11.084Z,7162.00
2023-05-19T11:33:10.964Z,6695.00
2023-05-19T11:34:10.919Z,6207.00
2023-05-19T11:35:10.913Z,6076.00
2023-05-19T11:36:10.941Z,6258.00
2023-05-19T11:37:10.964Z,6181.00
2023-05-19T11:38:10.937Z,5976.00
2023-05-19T11:39:10.979Z,6264.00
2023-05-19T11:40:10.996Z,6813.00
2023-05-19T11:41:11.010Z,7069.00
2023-05-19T11:42:11.040Z,7398.00
2023-05-19T11:43:11.011Z,7664.00
2023-05-19T11:44:11.044Z,7836.00
2023-05-19T11:45:11.048Z,7650.00
2023-05-19T11:46:11.115Z,7527.00
2023-05-19T11:47:11.097Z,7372.00
2023-05-19T11:48:11.174Z,7435.00
2023-05-19T11:49:11.147Z,7564.00
2023-05-19T11:50:11.209Z,7534.00
2023-05-19T11:51:11.114Z,7458.00
2023-05-19T11:52:11.135Z,7198.00
2023-05-19T11:53:11.157Z,7068.00
2023-05-19T11:54:11.180Z,7262.00
2023-05-19T11:55:11.219Z,7191.00
2023-05-19T11:56:11.189Z,7098.00
2023-05-19T11:57:11.187Z,7078.00
2023-05-19T11:58:11.187Z,6427.00
2023-05-19T11:59:11.236Z,5655.00
2023-05-19T12:00:11.253Z,5281.00
2023-05-19T12:01:11.253Z,5138.00
2023-05-19T12:02:11.300Z,5080.00
2023-05-19T12:03:11.466Z,5172.00
2023-05-19T12:04:11.237Z,5609.00
2023-05-19T12:05:11.285Z,5896.00
2023-05-19T12:06:11.304Z,6108.00
2023-05-19T12:07:11.273Z,6521.00
2023-05-19T12:08:11.305Z,7097.00
2023-05-19T12:09:11.318Z,7795.00
2023-05-19T12:10:11.385Z,8116.00
2023-05-19T12:11:11.370Z,7953.00
2023-05-19T12:12:11.362Z,7773.00
2023-05-19T12:13:11.426Z,7754.00
2023-05-19T12:14:11.366Z,7915.00
2023-05-19T12:15:11.355Z,8189.00
2023-05-19T12:16:11.422Z,8436.00
2023-05-19T12:17:11.404Z,8418.00
2023-05-19T12:18:11.446Z,8374.00
2023-05-19T12:19:11.430Z,8330.00
2023-05-19T12:20:11.461Z,8503.00
2023-05-19T12:21:11.409Z,8862.00
2023-05-19T12:22:11.436Z,9156.00
2023-05-19T12:23:11.453Z,9300.00
2023-05-19T12:24:11.458Z,727.00
2023-05-19T12:25:11.491Z,724.00
2023-05-19T12:26:11.474Z,723.00
2023-05-19T12:27:11.514Z,725.00
2023-05-19T12:28:11.475Z,723.00
2023-05-19T12:29:11.499Z,716.00
2023-05-19T12:30:11.501Z,706.00
2023-05-19T12:31:11.607Z,703.00
2023-05-19T12:32:11.502Z,678.00
2023-05-19T12:33:11.548Z,665.00